createdAt,value
2019-05-23T00:00:56.874Z,99.90
2019-05-23T00:03:33.049Z,99.90
2019-05-23T00:06:08.290Z,99.90
2019-05-23T00:08:40.129Z,99.90
2019-05-23T00:11:32.088Z,99.90
2019-05-23T00:14:07.665Z,99.90
2019-05-23T00:16:38.581Z,99.90
2019-05-23T00:19:09.259Z,99.90
2019-05-23T00:21:39.254Z,99.90
2019-05-23T00:24:10.879Z,99.90
2019-05-23T00:26:42.248Z,99.90
2019-05-23T00:29:12.403Z,99.90
2019-05-23T00:32:10.299Z,99.90
2019-05-23T00:34:41.540Z,99.90
2019-05-23T00:37:12.653Z,99.90
2019-05-23T00:39:44.679Z,99.90
2019-05-23T00:42:15.080Z,99.90
2019-05-23T00:44:44.958Z,99.90
2019-05-23T00:47:15.899Z,99.90
2019-05-23T00:49:47.211Z,99.90
2019-05-23T00:52:18.111Z,99.90
2019-05-23T00:54:48.233Z,99.90
2019-05-23T00:57:19.030Z,99.90
2019-05-23T00:59:49.945Z,99.90
2019-05-23T01:02:21.341Z,99.90
2019-05-23T01:04:51.646Z,99.90
2019-05-23T01:07:22.676Z,99.90
2019-05-23T01:09:52.993Z,99.90
2019-05-23T01:12:24.246Z,99.90
2019-05-23T01:14:55.498Z,99.90
2019-05-23T01:17:27.273Z,99.90
2019-05-23T01:19:58.089Z,99.90
2019-05-23T01:22:28.183Z,99.90
2019-05-23T01:24:58.331Z,99.90
2019-05-23T01:27:28.289Z,99.90
2019-05-23T01:29:59.848Z,99.90
2019-05-23T01:32:51.469Z,99.90
2019-05-23T01:35:24.417Z,99.90
2019-05-23T01:37:54.216Z,99.90
2019-05-23T01:40:25.937Z,99.90
2019-05-23T01:42:57.230Z,99.90
2019-05-23T01:45:27.854Z,99.90
2019-05-23T01:47:58.183Z,99.90
2019-05-23T01:50:28.097Z,99.90
2019-05-23T01:52:58.594Z,99.90
2019-05-23T01:55:28.531Z,99.90
2019-05-23T01:57:58.824Z,99.90
2019-05-23T02:00:31.412Z,99.90
2019-05-23T02:03:01.997Z,99.90
2019-05-23T02:05:32.287Z,99.90
2019-05-23T02:08:03.078Z,99.90
2019-05-23T02:10:33.815Z,99.90
2019-05-23T02:13:03.913Z,99.90
2019-05-23T02:15:34.814Z,99.90
2019-05-23T02:18:05.175Z,99.90
2019-05-23T02:20:35.892Z,99.90
2019-05-23T02:23:06.390Z,99.90
2019-05-23T02:25:38.336Z,99.90
2019-05-23T02:28:08.824Z,99.90
2019-05-23T02:30:39.480Z,99.90
2019-05-23T02:33:10.385Z,99.90
2019-05-23T02:35:40.698Z,99.90
2019-05-23T02:38:30.049Z,99.90
2019-05-23T02:41:25.745Z,99.90
2019-05-23T02:44:01.649Z,99.90
2019-05-23T02:46:49.707Z,99.90
2019-05-23T02:49:22.443Z,99.90
2019-05-23T02:51:53.758Z,99.90
2019-05-23T02:54:27.165Z,99.90
2019-05-23T02:57:00.155Z,99.90
2019-05-23T02:59:45.867Z,99.90
2019-05-23T03:02:43.606Z,99.90
2019-05-23T03:05:14.946Z,99.90
2019-05-23T03:07:45.579Z,99.90
2019-05-23T03:10:19.238Z,99.90
2019-05-23T03:12:49.827Z,99.90
2019-05-23T03:15:19.783Z,99.90
2019-05-23T03:17:53.573Z,99.90
2019-05-23T03:20:24.097Z,99.90
2019-05-23T03:23:00.251Z,99.90
2019-05-23T03:26:20.975Z,99.90
2019-05-23T03:28:51.254Z,99.90
2019-05-23T03:31:36.020Z,99.90
2019-05-23T03:34:08.097Z,99.90
2019-05-23T03:36:39.294Z,99.90
2019-05-23T03:39:11.393Z,99.90
2019-05-23T03:41:41.948Z,99.90
2019-05-23T03:44:13.307Z,99.90
2019-05-23T03:46:47.182Z,99.90
2019-05-23T03:49:19.597Z,99.90
2019-05-23T03:51:50.603Z,99.90
2019-05-23T03:54:21.099Z,99.90
2019-05-23T03:56:52.010Z,99.90
2019-05-23T03:59:24.985Z,99.90
2019-05-23T04:01:55.930Z,99.90
2019-05-23T04:04:26.127Z,99.90
2019-05-23T04:06:57.385Z,99.90
2019-05-23T04:09:28.010Z,99.90
2019-05-23T04:11:58.419Z,99.90
2019-05-23T04:14:29.594Z,99.90
2019-05-23T04:16:59.891Z,99.90
2019-05-23T04:19:29.795Z,99.90
2019-05-23T04:21:59.859Z,99.90
2019-05-23T04:24:30.510Z,99.90
2019-05-23T04:27:00.286Z,99.90
2019-05-23T04:29:30.588Z,99.90
2019-05-23T04:32:07.678Z,99.90
2019-05-23T04:34:33.036Z,99.90
2019-05-23T04:37:03.163Z,99.90
2019-05-23T04:39:35.896Z,99.90
2019-05-23T04:42:07.036Z,99.90
2019-05-23T04:44:36.954Z,99.90
2019-05-23T04:47:08.980Z,99.90
2019-05-23T04:49:39.525Z,99.90
2019-05-23T04:52:10.279Z,99.90
2019-05-23T04:54:41.413Z,99.90
2019-05-23T04:57:13.039Z,99.90
2019-05-23T04:59:43.022Z,99.90
2019-05-23T05:02:25.400Z,99.90
2019-05-23T05:04:46.139Z,99.90
2019-05-23T05:07:15.923Z,99.50
2019-05-23T05:09:46.820Z,99.10
2019-05-23T05:12:17.604Z,98.80
2019-05-23T05:14:47.800Z,98.40
2019-05-23T05:17:18.950Z,98.80
2019-05-23T05:19:49.659Z,98.50
2019-05-23T05:22:20.315Z,99.00
2019-05-23T05:24:50.297Z,99.00
2019-05-23T05:27:21.067Z,99.90
2019-05-23T05:29:50.747Z,99.90
2019-05-23T05:32:20.699Z,99.90
2019-05-23T05:34:50.680Z,99.90
2019-05-23T05:37:20.839Z,99.90
2019-05-23T05:39:51.434Z,99.90
2019-05-23T05:42:22.370Z,99.90
2019-05-23T05:44:52.498Z,99.90
2019-05-23T05:47:22.751Z,99.90
2019-05-23T05:49:52.837Z,99.90
2019-05-23T05:52:24.270Z,99.90
2019-05-23T05:54:54.362Z,99.90
2019-05-23T05:57:24.745Z,99.90
2019-05-23T05:59:54.731Z,99.90
2019-05-23T06:02:26.173Z,99.90
2019-05-23T06:04:56.195Z,99.90
2019-05-23T06:07:34.654Z,99.90
2019-05-23T06:10:06.832Z,99.90
2019-05-23T06:12:36.647Z,99.90
2019-05-23T06:15:07.599Z,99.90
2019-05-23T06:17:37.303Z,99.90
2019-05-23T06:20:07.451Z,99.90
2019-05-23T06:22:37.257Z,99.90
2019-05-23T06:25:07.265Z,99.90
2019-05-23T06:27:38.333Z,99.90
2019-05-23T06:30:10.063Z,99.90
2019-05-23T06:32:40.032Z,99.90
2019-05-23T06:35:10.119Z,99.90
2019-05-23T06:37:40.452Z,99.90
2019-05-23T06:40:11.151Z,99.90
2019-05-23T06:42:41.364Z,99.90
2019-05-23T06:45:11.817Z,99.90
2019-05-23T06:47:41.487Z,99.90
2019-05-23T06:50:16.189Z,99.90
2019-05-23T06:52:45.834Z,99.90
2019-05-23T06:55:15.947Z,99.90
2019-05-23T06:57:45.609Z,99.90
2019-05-23T07:00:19.895Z,99.90
2019-05-23T07:02:50.483Z,99.00
2019-05-23T07:05:24.403Z,98.00
2019-05-23T07:07:54.175Z,99.90
2019-05-23T07:10:24.548Z,99.90
2019-05-23T07:12:54.315Z,99.90
2019-05-23T07:15:27.094Z,99.90
2019-05-23T07:17:57.735Z,99.90
2019-05-23T07:20:27.751Z,99.00
2019-05-23T07:22:57.403Z,98.90
2019-05-23T07:25:27.577Z,99.90
2019-05-23T07:27:57.253Z,99.10
2019-05-23T07:30:28.274Z,99.10
2019-05-23T07:32:58.532Z,98.50
2019-05-23T07:35:28.254Z,97.90
2019-05-23T07:37:58.519Z,99.00
2019-05-23T07:40:29.181Z,98.50
2019-05-23T07:42:59.410Z,98.40
2019-05-23T07:45:39.631Z,99.90
2019-05-23T07:48:07.856Z,99.00
2019-05-23T07:50:37.568Z,98.50
2019-05-23T07:53:07.752Z,99.90
2019-05-23T07:55:39.843Z,99.00
2019-05-23T07:58:13.601Z,98.60
2019-05-23T08:00:48.725Z,98.20
2019-05-23T08:03:19.278Z,98.50
2019-05-23T08:05:49.304Z,97.90
2019-05-23T08:08:19.616Z,97.40
2019-05-23T08:10:49.797Z,97.50
2019-05-23T08:13:19.779Z,95.70
2019-05-23T08:15:50.230Z,97.00
2019-05-23T08:18:19.986Z,95.60
2019-05-23T08:20:49.794Z,97.30
2019-05-23T08:23:19.458Z,96.50
2019-05-23T08:25:49.690Z,95.80
2019-05-23T08:28:19.341Z,97.30
2019-05-23T08:30:49.519Z,96.30
2019-05-23T08:33:19.383Z,95.50
2019-05-23T08:35:49.858Z,95.20
2019-05-23T08:38:20.233Z,93.80
2019-05-23T08:40:51.454Z,95.00
2019-05-23T08:43:21.375Z,91.90
2019-05-23T08:45:51.174Z,91.10
2019-05-23T08:48:21.262Z,94.90
2019-05-23T08:50:51.820Z,92.50
2019-05-23T08:53:21.959Z,93.70
2019-05-23T08:55:52.391Z,92.50
2019-05-23T08:58:22.584Z,88.30
2019-05-23T09:00:55.405Z,87.70
2019-05-23T09:03:25.138Z,89.30
2019-05-23T09:05:56.142Z,90.10
2019-05-23T09:08:27.453Z,80.00
2019-05-23T09:10:57.489Z,79.70
2019-05-23T09:13:27.990Z,86.50
2019-05-23T09:15:58.335Z,87.80
2019-05-23T09:18:28.073Z,87.50
2019-05-23T09:20:58.679Z,80.90
2019-05-23T09:23:28.775Z,83.70
2019-05-23T09:26:00.038Z,81.50
2019-05-23T09:28:30.717Z,88.20
2019-05-23T09:31:01.994Z,80.10
2019-05-23T09:33:32.895Z,81.00
2019-05-23T09:36:02.994Z,79.40
2019-05-23T09:38:33.270Z,79.50
2019-05-23T09:41:03.907Z,79.40
2019-05-23T09:43:33.890Z,84.40
2019-05-23T09:46:03.703Z,87.80
2019-05-23T09:48:33.917Z,78.60
2019-05-23T09:51:03.660Z,81.90
2019-05-23T09:53:34.067Z,80.20
2019-05-23T09:56:04.468Z,83.80
2019-05-23T09:58:34.423Z,82.10
2019-05-23T10:01:04.577Z,83.10
2019-05-23T10:03:34.845Z,89.40
2019-05-23T10:06:04.951Z,89.10
2019-05-23T10:08:35.094Z,83.30
2019-05-23T10:11:05.474Z,84.20
2019-05-23T10:13:39.135Z,84.70
2019-05-23T10:16:09.326Z,86.50
2019-05-23T10:18:40.097Z,83.10
2019-05-23T10:21:10.447Z,79.80
2019-05-23T10:23:40.632Z,79.70
2019-05-23T10:26:11.402Z,77.50
2019-05-23T10:28:41.368Z,80.30
2019-05-23T10:31:12.617Z,85.20
2019-05-23T10:33:42.242Z,80.00
2019-05-23T10:36:12.566Z,79.90
2019-05-23T10:38:42.790Z,77.40
2019-05-23T10:41:13.043Z,79.90
2019-05-23T10:43:43.392Z,80.20
2019-05-23T10:46:14.686Z,80.30
2019-05-23T10:48:44.566Z,79.70
2019-05-23T10:51:14.654Z,81.80
2019-05-23T10:53:44.732Z,85.10
2019-05-23T10:56:20.098Z,83.70
2019-05-23T10:58:47.255Z,82.30
2019-05-23T11:01:17.386Z,77.70
2019-05-23T11:03:47.637Z,86.00
2019-05-23T11:06:18.000Z,79.10
2019-05-23T11:08:48.416Z,81.10
2019-05-23T11:11:18.115Z,83.00
2019-05-23T11:13:49.014Z,77.10
2019-05-23T11:16:19.700Z,85.20
2019-05-23T11:18:49.997Z,83.30
2019-05-23T11:21:21.035Z,78.00
2019-05-23T11:23:53.182Z,80.70
2019-05-23T11:26:23.020Z,76.10
2019-05-23T11:28:52.855Z,86.20
2019-05-23T11:31:23.077Z,81.70
2019-05-23T11:33:52.722Z,79.60
2019-05-23T11:36:34.599Z,84.70
2019-05-23T11:38:54.230Z,84.30
2019-05-23T11:41:24.340Z,84.70
2019-05-23T11:43:54.582Z,84.00
2019-05-23T11:46:33.920Z,80.00
2019-05-23T11:49:05.239Z,81.90
2019-05-23T11:51:35.875Z,85.80
2019-05-23T11:54:08.829Z,78.80
2019-05-23T11:56:38.704Z,82.20
2019-05-23T11:59:09.045Z,83.80
2019-05-23T12:01:47.537Z,83.70
2019-05-23T12:04:19.363Z,86.40
2019-05-23T12:06:56.450Z,84.60
2019-05-23T12:09:26.980Z,81.60
2019-05-23T12:11:56.891Z,84.70
2019-05-23T12:14:27.045Z,82.90
2019-05-23T12:16:57.964Z,87.30
2019-05-23T12:19:28.221Z,80.60
2019-05-23T12:21:58.189Z,81.20
2019-05-23T12:24:28.500Z,88.80
2019-05-23T12:26:58.628Z,87.90
2019-05-23T12:29:28.786Z,84.70
2019-05-23T12:31:59.264Z,82.90
2019-05-23T12:34:29.463Z,86.10
2019-05-23T12:37:17.072Z,83.00
2019-05-23T12:39:31.682Z,82.90
2019-05-23T12:42:01.596Z,76.70
2019-05-23T12:44:31.658Z,79.90
2019-05-23T12:47:02.540Z,82.10
2019-05-23T12:49:49.677Z,84.30
2019-05-23T12:52:19.454Z,85.40
2019-05-23T12:54:50.135Z,84.70
2019-05-23T12:57:20.403Z,84.80
2019-05-23T12:59:50.292Z,75.50
2019-05-23T13:02:23.637Z,77.80
2019-05-23T13:04:53.568Z,74.60
2019-05-23T13:07:35.562Z,77.40
2019-05-23T13:09:55.680Z,74.10
2019-05-23T13:12:25.770Z,82.10
2019-05-23T13:14:58.745Z,77.50
2019-05-23T13:17:27.226Z,83.00
2019-05-23T13:19:56.952Z,74.30
2019-05-23T13:22:26.846Z,70.00
2019-05-23T13:24:56.545Z,81.40
2019-05-23T13:27:27.496Z,69.90
2019-05-23T13:29:59.187Z,78.00
2019-05-23T13:32:29.170Z,70.90
2019-05-23T13:34:59.154Z,69.80
2019-05-23T13:37:29.674Z,67.00
2019-05-23T13:39:59.874Z,67.50
2019-05-23T13:42:29.843Z,69.10
2019-05-23T13:45:00.417Z,70.50
2019-05-23T13:47:30.563Z,68.50
2019-05-23T13:50:00.531Z,74.20
2019-05-23T13:52:30.328Z,78.00
2019-05-23T13:55:00.295Z,65.20
2019-05-23T13:57:30.236Z,68.20
2019-05-23T14:00:00.539Z,71.10
2019-05-23T14:02:31.383Z,76.50
2019-05-23T14:05:01.779Z,73.60
2019-05-23T14:07:31.958Z,72.90
2019-05-23T14:10:02.254Z,71.40
2019-05-23T14:12:32.531Z,70.00
2019-05-23T14:15:02.982Z,70.20
2019-05-23T14:17:36.916Z,74.70
2019-05-23T14:20:07.208Z,73.00
2019-05-23T14:22:40.760Z,74.70
2019-05-23T14:25:10.741Z,76.40
2019-05-23T14:27:47.497Z,74.10
2019-05-23T14:30:36.348Z,70.60
2019-05-23T14:33:10.886Z,70.40
2019-05-23T14:35:41.685Z,67.40
2019-05-23T14:38:29.234Z,69.00
2019-05-23T14:40:46.641Z,67.40
2019-05-23T14:43:22.262Z,72.80
2019-05-23T14:46:01.595Z,67.60
2019-05-23T14:48:49.115Z,73.40
2019-05-23T14:51:31.505Z,73.10
2019-05-23T14:54:07.894Z,72.10
2019-05-23T14:56:39.426Z,67.50
2019-05-23T14:59:09.813Z,65.90
2019-05-23T15:01:39.728Z,68.90
2019-05-23T15:04:10.515Z,70.50
2019-05-23T15:06:40.783Z,72.80
2019-05-23T15:09:11.172Z,77.30
2019-05-23T15:11:41.214Z,68.60
2019-05-23T15:14:11.414Z,70.60
2019-05-23T15:16:41.350Z,72.70
2019-05-23T15:19:11.234Z,68.50
2019-05-23T15:21:41.085Z,70.90
2019-05-23T15:24:11.266Z,68.70
2019-05-23T15:26:41.435Z,71.10
2019-05-23T15:29:11.614Z,72.50
2019-05-23T15:31:42.071Z,70.50
2019-05-23T15:34:11.848Z,71.50
2019-05-23T15:36:42.104Z,72.40
2019-05-23T15:39:11.869Z,70.60
2019-05-23T15:41:42.217Z,74.10
2019-05-23T15:44:25.249Z,69.20
2019-05-23T15:46:44.195Z,75.20
2019-05-23T15:49:14.796Z,76.30
2019-05-23T15:51:54.043Z,70.90
2019-05-23T15:54:36.288Z,75.40
2019-05-23T15:57:18.146Z,67.80
2019-05-23T16:00:02.522Z,72.60
2019-05-23T16:02:36.867Z,68.30
2019-05-23T16:05:10.059Z,71.90
2019-05-23T16:07:41.158Z,70.80
2019-05-23T16:10:12.162Z,71.10
2019-05-23T16:12:42.341Z,68.90
2019-05-23T16:15:12.318Z,69.80
2019-05-23T16:17:42.599Z,70.10
2019-05-23T16:20:12.574Z,70.40
2019-05-23T16:22:42.275Z,71.70
2019-05-23T16:25:12.149Z,72.40
2019-05-23T16:27:41.843Z,70.50
2019-05-23T16:30:12.128Z,73.00
2019-05-23T16:32:46.270Z,67.60
2019-05-23T16:35:14.073Z,68.90
2019-05-23T16:37:43.943Z,71.30
2019-05-23T16:40:13.843Z,65.80
2019-05-23T16:42:43.747Z,69.50
2019-05-23T16:45:13.627Z,71.30
2019-05-23T16:47:43.430Z,64.60
2019-05-23T16:50:13.391Z,70.30
2019-05-23T16:52:43.116Z,67.70
2019-05-23T16:55:26.408Z,64.10
2019-05-23T16:58:00.595Z,68.20
2019-05-23T17:00:54.597Z,67.30
2019-05-23T17:03:31.238Z,67.70
2019-05-23T17:06:13.250Z,66.90
2019-05-23T17:09:14.446Z,63.70
2019-05-23T17:12:09.112Z,61.20
2019-05-23T17:14:53.187Z,63.70
2019-05-23T17:17:57.126Z,64.50
2019-05-23T17:20:25.132Z,65.20
2019-05-23T17:23:12.525Z,62.40
2019-05-23T17:25:51.067Z,60.40
2019-05-23T17:28:27.475Z,60.00
2019-05-23T17:31:03.009Z,60.00
2019-05-23T17:33:36.704Z,62.20
2019-05-23T17:36:04.418Z,59.40
2019-05-23T17:38:34.311Z,60.10
2019-05-23T17:41:04.187Z,59.30
2019-05-23T17:43:33.924Z,60.20
2019-05-23T17:46:03.588Z,60.20
2019-05-23T17:48:33.249Z,59.50
2019-05-23T17:51:03.079Z,58.80
2019-05-23T17:53:32.809Z,59.70
2019-05-23T17:56:03.064Z,59.70
2019-05-23T17:58:32.830Z,59.40
2019-05-23T18:01:02.731Z,60.80
2019-05-23T18:03:33.031Z,59.20
2019-05-23T18:06:03.993Z,59.40
2019-05-23T18:08:33.735Z,59.30
2019-05-23T18:11:04.446Z,60.50
2019-05-23T18:13:34.092Z,62.80
2019-05-23T18:16:03.990Z,59.20
2019-05-23T18:18:34.696Z,65.30
2019-05-23T18:21:06.513Z,62.40
2019-05-23T18:23:37.134Z,62.90
2019-05-23T18:26:08.195Z,66.10
2019-05-23T18:28:38.270Z,65.30
2019-05-23T18:31:14.446Z,66.10
2019-05-23T18:33:44.769Z,66.40
2019-05-23T18:36:15.560Z,65.40
2019-05-23T18:38:45.893Z,63.30
2019-05-23T18:41:16.245Z,64.50
2019-05-23T18:43:46.584Z,67.20
2019-05-23T18:46:22.186Z,63.40
2019-05-23T18:48:52.080Z,67.20
2019-05-23T18:51:21.831Z,65.50
2019-05-23T18:53:51.568Z,67.50
2019-05-23T18:56:21.292Z,65.10
2019-05-23T18:58:51.314Z,67.90
2019-05-23T19:01:22.598Z,64.20
2019-05-23T19:03:52.766Z,67.50
2019-05-23T19:06:22.982Z,66.00
2019-05-23T19:08:52.841Z,62.50
2019-05-23T19:11:22.758Z,64.60
2019-05-23T19:13:52.639Z,63.40
2019-05-23T19:16:24.294Z,69.70
2019-05-23T19:18:54.710Z,66.10
2019-05-23T19:21:26.667Z,70.20
2019-05-23T19:23:56.744Z,68.40
2019-05-23T19:26:27.562Z,64.90
2019-05-23T19:28:57.446Z,72.90
2019-05-23T19:31:27.822Z,65.00
2019-05-23T19:33:58.046Z,69.70
2019-05-23T19:36:28.338Z,73.10
2019-05-23T19:38:58.602Z,70.90
2019-05-23T19:41:37.300Z,71.00
2019-05-23T19:44:01.532Z,73.50
2019-05-23T19:46:32.798Z,72.80
2019-05-23T19:49:02.905Z,65.00
2019-05-23T19:51:32.803Z,75.40
2019-05-23T19:54:03.503Z,73.80
2019-05-23T19:56:33.222Z,73.00
2019-05-23T19:59:03.467Z,72.30
2019-05-23T20:01:41.051Z,72.00
2019-05-23T20:04:10.978Z,69.70
2019-05-23T20:06:41.830Z,73.00
2019-05-23T20:09:13.514Z,72.80
2019-05-23T20:11:53.874Z,72.80
2019-05-23T20:14:15.358Z,72.90
2019-05-23T20:16:45.390Z,72.80
2019-05-23T20:19:15.554Z,73.20
2019-05-23T20:21:45.989Z,73.50
2019-05-23T20:24:16.534Z,73.40
2019-05-23T20:26:46.859Z,73.80
2019-05-23T20:29:18.138Z,73.80
2019-05-23T20:31:48.804Z,74.00
2019-05-23T20:34:19.194Z,74.00
2019-05-23T20:36:49.386Z,74.10
2019-05-23T20:39:20.143Z,74.30
2019-05-23T20:41:49.803Z,74.60
2019-05-23T20:44:20.104Z,74.80
2019-05-23T20:46:50.777Z,75.10
2019-05-23T20:49:20.850Z,75.20
2019-05-23T20:51:51.022Z,75.60
2019-05-23T20:54:21.312Z,75.70
2019-05-23T20:56:51.974Z,75.90
2019-05-23T20:59:22.846Z,76.20
2019-05-23T21:01:53.240Z,76.60
2019-05-23T21:04:23.898Z,77.00
2019-05-23T21:06:54.191Z,77.10
2019-05-23T21:09:24.565Z,77.30
2019-05-23T21:11:54.918Z,77.40
2019-05-23T21:14:25.199Z,77.60
2019-05-23T21:16:55.689Z,77.70
2019-05-23T21:19:25.401Z,77.90
2019-05-23T21:21:55.623Z,78.10
2019-05-23T21:24:25.343Z,78.50
2019-05-23T21:26:55.442Z,78.70
2019-05-23T21:29:25.581Z,78.90
2019-05-23T21:31:55.652Z,79.20
2019-05-23T21:34:25.638Z,79.30
2019-05-23T21:36:55.822Z,80.60
2019-05-23T21:39:25.975Z,80.60
2019-05-23T21:41:56.163Z,81.10
2019-05-23T21:44:26.558Z,80.80
2019-05-23T21:46:56.780Z,80.70
2019-05-23T21:49:27.581Z,81.00
2019-05-23T21:51:58.271Z,81.40
2019-05-23T21:54:28.739Z,80.50
2019-05-23T21:56:58.726Z,81.80
2019-05-23T21:59:29.452Z,79.90
2019-05-23T22:02:07.436Z,83.70
2019-05-23T22:04:52.502Z,82.10
2019-05-23T22:07:22.535Z,84.30
2019-05-23T22:09:52.916Z,83.60
2019-05-23T22:12:23.504Z,83.30
2019-05-23T22:14:54.363Z,83.20
2019-05-23T22:17:26.128Z,83.00
2019-05-23T22:19:56.042Z,83.40
2019-05-23T22:22:27.215Z,84.80
2019-05-23T22:24:57.201Z,84.40
2019-05-23T22:27:27.268Z,83.30
2019-05-23T22:29:57.099Z,83.30
2019-05-23T22:32:28.041Z,83.20
2019-05-23T22:35:01.829Z,83.30
2019-05-23T22:37:32.238Z,82.60
2019-05-23T22:40:02.395Z,83.30
2019-05-23T22:42:34.523Z,83.50
2019-05-23T22:45:06.103Z,83.90
2019-05-23T22:47:36.274Z,83.60
2019-05-23T22:50:06.820Z,83.40
2019-05-23T22:52:36.804Z,84.20
2019-05-23T22:55:07.510Z,83.70
2019-05-23T22:57:37.970Z,83.30
2019-05-23T23:00:08.353Z,84.00
2019-05-23T23:02:38.418Z,81.40
2019-05-23T23:05:08.482Z,84.80
2019-05-23T23:07:38.657Z,85.20
2019-05-23T23:10:08.831Z,85.00
2019-05-23T23:12:39.226Z,85.10
2019-05-23T23:15:09.478Z,85.20
2019-05-23T23:17:39.496Z,84.30
2019-05-23T23:20:10.020Z,85.60
2019-05-23T23:22:40.179Z,86.00
2019-05-23T23:25:10.358Z,86.10
2019-05-23T23:27:40.423Z,85.80
2019-05-23T23:30:12.110Z,86.00
2019-05-23T23:32:42.289Z,87.30
2019-05-23T23:35:12.374Z,86.90
2019-05-23T23:37:42.219Z,87.50
2019-05-23T23:40:12.552Z,86.70
2019-05-23T23:42:42.559Z,86.40
2019-05-23T23:45:30.360Z,86.50
2019-05-23T23:48:17.760Z,86.40
2019-05-23T23:51:05.299Z,86.80
2019-05-23T23:53:53.753Z,87.00
2019-05-23T23:56:41.584Z,87.00
2019-05-23T23:59:10.663Z,87.10
